createdAt,value
2019-05-17T00:02:17.479Z,94258.55
2019-05-17T00:04:47.302Z,94258.83
2019-05-17T00:07:16.871Z,94246.83
2019-05-17T00:09:47.863Z,94247.47
2019-05-17T00:12:17.528Z,94245.39
2019-05-17T00:14:47.329Z,94242.98
2019-05-17T00:17:17.372Z,94241.84
2019-05-17T00:19:46.950Z,94236.35
2019-05-17T00:22:16.831Z,94239.23
2019-05-17T00:24:47.693Z,94235.05
2019-05-17T00:27:17.394Z,94235.39
2019-05-17T00:29:46.783Z,94242.98
2019-05-17T00:32:17.121Z,94242.09
2019-05-17T00:34:47.056Z,94248.45
2019-05-17T00:37:17.367Z,94250.41
2019-05-17T00:39:47.279Z,94247.47
2019-05-17T00:42:17.163Z,94249.77
2019-05-17T00:44:47.349Z,94243.44
2019-05-17T00:47:17.242Z,94243.91
2019-05-17T00:49:46.802Z,94238.86
2019-05-17T00:52:16.839Z,94242.34
2019-05-17T00:54:46.949Z,94231.81
2019-05-17T00:57:16.678Z,94234.05
2019-05-17T00:59:47.618Z,94240.91
2019-05-17T01:02:17.138Z,94239.23
2019-05-17T01:04:47.568Z,94244.66
2019-05-17T01:07:17.822Z,94244.94
2019-05-17T01:09:47.400Z,94237.33
2019-05-17T01:12:16.707Z,94239.74
2019-05-17T01:14:46.685Z,94244.14
2019-05-17T01:17:16.574Z,94238.45
2019-05-17T01:19:47.218Z,94247.20
2019-05-17T01:22:17.048Z,94243.16
2019-05-17T01:24:46.544Z,94243.99
2019-05-17T01:27:17.249Z,94245.72
2019-05-17T01:29:46.743Z,94248.46
2019-05-17T01:32:17.207Z,94247.63
2019-05-17T01:34:47.076Z,94244.19
2019-05-17T01:37:17.143Z,94240.84
2019-05-17T01:39:46.961Z,94242.30
2019-05-17T01:42:17.157Z,94243.87
2019-05-17T01:44:47.224Z,94235.20
2019-05-17T01:47:16.833Z,94232.69
2019-05-17T01:49:46.959Z,94234.91
2019-05-17T01:52:16.868Z,94231.09
2019-05-17T01:54:46.932Z,94232.08
2019-05-17T01:57:16.972Z,94224.34
2019-05-17T01:59:46.824Z,94213.81
2019-05-17T02:02:19.762Z,94217.84
2019-05-17T02:04:49.745Z,94217.52
2019-05-17T02:07:19.071Z,94221.94
2019-05-17T02:09:48.433Z,94220.64
2019-05-17T02:12:17.765Z,94225.42
2019-05-17T02:14:47.162Z,94224.40
2019-05-17T02:17:17.452Z,94223.47
2019-05-17T02:19:46.969Z,94224.77
2019-05-17T02:22:16.843Z,94220.64
2019-05-17T02:24:46.530Z,94222.69
2019-05-17T02:27:16.038Z,94232.00
2019-05-17T02:29:45.535Z,94231.45
2019-05-17T02:32:15.006Z,94223.23
2019-05-17T02:34:44.385Z,94220.80
2019-05-17T02:37:13.804Z,94224.81
2019-05-17T02:39:53.979Z,94221.19
2019-05-17T02:42:14.220Z,94227.95
2019-05-17T02:44:43.934Z,94221.38
2019-05-17T02:47:13.454Z,94219.69
2019-05-17T02:49:42.762Z,94226.23
2019-05-17T02:52:12.590Z,94225.41
2019-05-17T02:54:43.690Z,94228.13
2019-05-17T02:57:14.122Z,94232.01
2019-05-17T02:59:43.824Z,94229.80
2019-05-17T03:02:13.167Z,94231.16
2019-05-17T03:04:43.294Z,94229.91
2019-05-17T03:07:13.729Z,94229.18
2019-05-17T03:09:43.410Z,94225.97
2019-05-17T03:12:13.072Z,94218.94
2019-05-17T03:14:43.260Z,94228.16
2019-05-17T03:17:14.028Z,94232.13
2019-05-17T03:19:43.897Z,94227.31
2019-05-17T03:22:13.419Z,94228.09
2019-05-17T03:24:44.013Z,94217.52
2019-05-17T03:27:13.826Z,94203.77
2019-05-17T03:29:43.294Z,94207.25
2019-05-17T03:32:17.107Z,94222.03
2019-05-17T03:34:46.599Z,94227.12
2019-05-17T03:37:16.690Z,94218.44
2019-05-17T03:39:46.212Z,94226.91
2019-05-17T03:42:15.565Z,94229.95
2019-05-17T03:44:44.987Z,94232.23
2019-05-17T03:47:14.349Z,94231.70
2019-05-17T03:49:43.946Z,94232.84
2019-05-17T03:52:13.825Z,94238.41
2019-05-17T03:54:43.337Z,94236.27
2019-05-17T03:57:13.448Z,94234.97
2019-05-17T03:59:43.183Z,94246.29
2019-05-17T04:02:12.745Z,94249.05
2019-05-17T04:04:42.972Z,94246.72
2019-05-17T04:07:12.885Z,94237.81
2019-05-17T04:09:43.794Z,94243.94
2019-05-17T04:12:13.766Z,94242.69
2019-05-17T04:14:43.236Z,94240.59
2019-05-17T04:17:13.252Z,94246.92
2019-05-17T04:19:43.341Z,94247.17
2019-05-17T04:22:13.867Z,94247.63
2019-05-17T04:24:43.990Z,94249.55
2019-05-17T04:27:13.848Z,94246.36
2019-05-17T04:29:43.239Z,94242.47
2019-05-17T04:32:13.124Z,94248.13
2019-05-17T04:34:43.756Z,94243.95
2019-05-17T04:37:13.340Z,94244.99
2019-05-17T04:39:43.383Z,94250.56
2019-05-17T04:42:13.567Z,94242.61
2019-05-17T04:44:43.424Z,94250.77
2019-05-17T04:47:13.540Z,94243.92
2019-05-17T04:49:43.980Z,94245.80
2019-05-17T04:52:13.840Z,94250.20
2019-05-17T04:54:43.469Z,94252.02
2019-05-17T04:57:13.324Z,94253.56
2019-05-17T04:59:43.504Z,94251.73
2019-05-17T05:02:13.448Z,94251.34
2019-05-17T05:04:43.765Z,94257.28
2019-05-17T05:07:13.858Z,94262.26
2019-05-17T05:09:43.507Z,94256.55
2019-05-17T05:12:12.856Z,94254.61
2019-05-17T05:14:43.129Z,94253.41
2019-05-17T05:17:13.041Z,94261.96
2019-05-17T05:19:42.517Z,94256.88
2019-05-17T05:22:13.536Z,94262.13
2019-05-17T05:24:43.121Z,94263.49
2019-05-17T05:27:12.512Z,94258.92
2019-05-17T05:29:41.902Z,94268.28
2019-05-17T05:32:11.867Z,94265.23
2019-05-17T05:34:42.950Z,94265.23
2019-05-17T05:37:12.682Z,94262.20
2019-05-17T05:39:42.128Z,94262.15
2019-05-17T05:42:14.011Z,94254.39
2019-05-17T05:44:42.651Z,94251.30
2019-05-17T05:47:12.008Z,94258.60
2019-05-17T05:49:42.619Z,94259.78
2019-05-17T05:52:12.562Z,94250.69
2019-05-17T05:54:42.082Z,94250.66
2019-05-17T05:57:12.611Z,94253.89
2019-05-17T05:59:42.592Z,94256.25
2019-05-17T06:02:12.463Z,94248.92
2019-05-17T06:04:42.414Z,94256.42
2019-05-17T06:07:12.867Z,94259.58
2019-05-17T06:09:42.621Z,94258.75
2019-05-17T06:12:23.347Z,94262.15
2019-05-17T06:14:43.133Z,94260.48
2019-05-17T06:17:12.737Z,94259.67
2019-05-17T06:19:42.348Z,94255.27
2019-05-17T06:22:12.123Z,94256.64
2019-05-17T06:24:42.464Z,94257.28
2019-05-17T06:27:12.428Z,94263.91
2019-05-17T06:29:42.026Z,94260.32
2019-05-17T06:32:11.978Z,94265.73
2019-05-17T06:34:42.230Z,94263.55
2019-05-17T06:37:13.321Z,94266.12
2019-05-17T06:39:42.927Z,94266.31
2019-05-17T06:42:12.312Z,94264.57
2019-05-17T06:44:41.913Z,94270.89
2019-05-17T06:47:11.915Z,94268.23
2019-05-17T06:49:42.412Z,94270.59
2019-05-17T06:52:11.953Z,94273.86
2019-05-17T06:54:41.857Z,94279.14
2019-05-17T06:57:12.804Z,94274.32
2019-05-17T06:59:42.957Z,94273.38
2019-05-17T07:02:12.292Z,94269.63
2019-05-17T07:04:41.728Z,94268.54
2019-05-17T07:07:26.538Z,94264.22
2019-05-17T07:09:57.284Z,94268.74
2019-05-17T07:12:26.956Z,94268.74
2019-05-17T07:14:58.355Z,94269.98
2019-05-17T07:17:27.491Z,94264.06
2019-05-17T07:19:56.842Z,94258.73
2019-05-17T07:22:26.218Z,94256.53
2019-05-17T07:24:55.693Z,94258.43
2019-05-17T07:27:37.834Z,94255.23
2019-05-17T07:29:59.134Z,94254.22
2019-05-17T07:32:29.701Z,94250.08
2019-05-17T07:35:00.090Z,94248.75
2019-05-17T07:37:30.311Z,94250.47
2019-05-17T07:40:04.714Z,94251.37
2019-05-17T07:42:31.658Z,94245.06
2019-05-17T07:45:01.021Z,94246.98
2019-05-17T07:47:30.422Z,94260.56
2019-05-17T07:50:00.945Z,94254.13
2019-05-17T07:52:30.821Z,94253.11
2019-05-17T07:55:02.238Z,94258.90
2019-05-17T07:57:31.294Z,94262.34
2019-05-17T08:00:00.666Z,94259.82
2019-05-17T08:02:30.752Z,94258.64
2019-05-17T08:05:00.700Z,94258.64
2019-05-17T08:07:30.327Z,94263.86
2019-05-17T08:10:00.240Z,94267.55
2019-05-17T08:12:30.469Z,94258.51
2019-05-17T08:15:00.160Z,94258.66
2019-05-17T08:17:30.483Z,94254.09
2019-05-17T08:20:00.569Z,94249.62
2019-05-17T08:22:30.289Z,94245.30
2019-05-17T08:25:00.231Z,94249.98
2019-05-17T08:27:29.980Z,94248.52
2019-05-17T08:29:59.949Z,94245.38
2019-05-17T08:32:31.552Z,94236.89
2019-05-17T08:35:00.615Z,94245.95
2019-05-17T08:37:30.383Z,94241.88
2019-05-17T08:40:00.233Z,94243.27
2019-05-17T08:42:30.086Z,94231.72
2019-05-17T08:45:00.262Z,94231.16
2019-05-17T08:47:30.146Z,94227.68
2019-05-17T08:50:00.533Z,94228.98
2019-05-17T08:52:30.074Z,94229.67
2019-05-17T08:55:00.345Z,94223.23
2019-05-17T08:57:30.457Z,94222.14
2019-05-17T09:00:00.760Z,94223.53
2019-05-17T09:02:30.564Z,94219.65
2019-05-17T09:05:00.454Z,94216.81
2019-05-17T09:07:30.044Z,94211.86
2019-05-17T09:10:02.162Z,94209.27
2019-05-17T09:12:31.556Z,94214.60
2019-05-17T09:15:01.221Z,94210.73
2019-05-17T09:17:30.990Z,94212.86
2019-05-17T09:20:00.875Z,94210.64
2019-05-17T09:22:30.870Z,94213.09
2019-05-17T09:25:00.274Z,94210.76
2019-05-17T09:27:30.126Z,94214.29
2019-05-17T09:30:00.055Z,94204.30
2019-05-17T09:32:29.813Z,94205.50
2019-05-17T09:35:00.309Z,94206.46
2019-05-17T09:37:30.488Z,94204.62
2019-05-17T09:40:00.060Z,94204.80
2019-05-17T09:42:29.959Z,94201.88
2019-05-17T09:45:00.328Z,94197.38
2019-05-17T09:47:30.187Z,94194.48
2019-05-17T09:50:00.489Z,94187.98
2019-05-17T09:52:30.255Z,94186.16
2019-05-17T09:55:00.542Z,94189.50
2019-05-17T09:57:30.226Z,94191.95
2019-05-17T10:00:00.191Z,94190.39
2019-05-17T10:02:29.737Z,94192.92
2019-05-17T10:04:59.825Z,94191.36
2019-05-17T10:07:29.949Z,94191.63
2019-05-17T10:09:59.858Z,94194.96
2019-05-17T10:12:29.302Z,94192.44
2019-05-17T10:15:00.514Z,94181.71
2019-05-17T10:17:29.723Z,94182.81
2019-05-17T10:19:59.870Z,94185.67
2019-05-17T10:22:30.391Z,94188.16
2019-05-17T10:25:00.434Z,94184.44
2019-05-17T10:30:11.285Z,94192.69
2019-05-17T10:32:43.610Z,94188.17
2019-05-17T10:35:21.657Z,94194.02
2019-05-17T10:37:51.061Z,94189.56
2019-05-17T10:40:21.445Z,94186.84
2019-05-17T10:42:50.795Z,94189.06
2019-05-17T10:45:20.338Z,94189.53
2019-05-17T10:47:50.425Z,94189.29
2019-05-17T10:50:21.155Z,94185.43
2019-05-17T10:52:50.539Z,94177.50
2019-05-17T10:55:20.152Z,94189.50
2019-05-17T10:57:50.198Z,94190.97
2019-05-17T11:00:20.203Z,94188.83
2019-05-17T11:02:50.661Z,94186.70
2019-05-17T11:05:20.381Z,94181.18
2019-05-17T11:07:50.670Z,94179.34
2019-05-17T11:10:21.129Z,94184.47
2019-05-17T11:12:50.498Z,94179.13
2019-05-17T11:15:20.854Z,94178.05
2019-05-17T11:17:50.223Z,94174.31
2019-05-17T11:20:20.268Z,94176.73
2019-05-17T11:22:49.602Z,94165.25
2019-05-17T11:25:18.990Z,94173.09
2019-05-17T11:27:48.331Z,94164.11
2019-05-17T11:30:18.390Z,94159.12
2019-05-17T11:32:47.719Z,94158.61
2019-05-17T11:35:17.088Z,94157.72
2019-05-17T11:37:46.485Z,94164.36
2019-05-17T11:40:16.461Z,94163.03
2019-05-17T11:42:46.154Z,94165.95
2019-05-17T11:45:27.126Z,94162.53
2019-05-17T11:47:49.674Z,94159.33
2019-05-17T11:50:19.234Z,94163.81
2019-05-17T11:52:48.584Z,94168.73
2019-05-17T11:55:17.994Z,94163.01
2019-05-17T11:57:47.325Z,94165.63
2019-05-17T12:00:19.134Z,94165.55
2019-05-17T12:02:48.455Z,94165.13
2019-05-17T12:05:17.823Z,94163.27
2019-05-17T12:07:47.216Z,94164.44
2019-05-17T12:10:16.956Z,94162.36
2019-05-17T12:12:49.770Z,94161.64
2019-05-17T12:15:19.766Z,94152.95
2019-05-17T12:17:49.100Z,94147.61
2019-05-17T12:20:18.549Z,94153.50
2019-05-17T12:22:47.956Z,94150.81
2019-05-17T12:25:17.438Z,94150.80
2019-05-17T12:27:46.809Z,94147.66
2019-05-17T12:30:17.645Z,94156.13
2019-05-17T12:32:46.995Z,94155.86
2019-05-17T12:35:16.376Z,94147.37
2019-05-17T12:37:45.746Z,94148.16
2019-05-17T12:40:15.317Z,94136.21
2019-05-17T12:42:44.642Z,94133.31
2019-05-17T12:45:14.134Z,94133.06
2019-05-17T12:47:43.571Z,94134.88
2019-05-17T12:50:13.222Z,94137.73
2019-05-17T12:52:42.590Z,94133.69
2019-05-17T12:55:12.182Z,94133.66
2019-05-17T12:57:41.504Z,94135.02
2019-05-17T13:00:12.603Z,94134.55
2019-05-17T13:02:42.005Z,94130.46
2019-05-17T13:05:11.591Z,94123.55
2019-05-17T13:07:40.954Z,94124.80
2019-05-17T13:10:10.727Z,94128.81
2019-05-17T13:12:40.074Z,94128.80
2019-05-17T13:15:09.576Z,94125.09
2019-05-17T13:17:38.957Z,94115.48
2019-05-17T13:20:09.496Z,94108.36
2019-05-17T13:22:39.326Z,94106.12
2019-05-17T13:25:09.353Z,94095.48
2019-05-17T13:27:39.498Z,94095.09
2019-05-17T13:30:10.559Z,94100.46
2019-05-17T13:32:39.935Z,94111.62
2019-05-17T13:35:10.594Z,94100.28
2019-05-17T13:37:40.056Z,94093.75
2019-05-17T13:40:10.028Z,94089.70
2019-05-17T13:42:39.488Z,94100.08
2019-05-17T13:45:09.512Z,94120.63
2019-05-17T13:47:39.058Z,94121.77
2019-05-17T13:50:09.589Z,94114.91
2019-05-17T13:52:38.952Z,94119.88
2019-05-17T13:55:08.661Z,94112.02
2019-05-17T13:57:38.033Z,94109.72
2019-05-17T14:00:08.481Z,94111.72
2019-05-17T14:02:37.960Z,94119.03
2019-05-17T14:05:07.799Z,94128.58
2019-05-17T14:07:37.163Z,94125.89
2019-05-17T14:10:07.876Z,94131.96
2019-05-17T14:12:37.174Z,94138.54
2019-05-17T14:15:07.515Z,94133.54
2019-05-17T14:17:36.973Z,94131.94
2019-05-17T14:20:06.675Z,94129.25
2019-05-17T14:22:36.163Z,94128.67
2019-05-17T14:25:05.824Z,94133.54
2019-05-17T14:27:35.181Z,94139.98
2019-05-17T14:30:05.133Z,94144.23
2019-05-17T14:32:34.536Z,94144.98
2019-05-17T14:35:04.140Z,94146.89
2019-05-17T14:37:33.489Z,94147.94
2019-05-17T14:40:02.909Z,94150.88
2019-05-17T14:42:32.259Z,94153.23
2019-05-17T14:45:01.733Z,94157.95
2019-05-17T14:47:31.685Z,94160.59
2019-05-17T14:50:01.154Z,94163.28
2019-05-17T14:52:30.536Z,94183.89
2019-05-17T14:54:59.921Z,94181.27
2019-05-17T14:57:29.329Z,94176.55
2019-05-17T14:59:58.704Z,94166.92
2019-05-17T15:02:28.086Z,94164.94
2019-05-17T15:04:57.493Z,94164.16
2019-05-17T15:07:26.844Z,94166.77
2019-05-17T15:09:56.320Z,94165.16
2019-05-17T15:12:28.766Z,94166.77
2019-05-17T15:14:56.823Z,94157.86
2019-05-17T15:17:26.223Z,94157.48
2019-05-17T15:19:55.664Z,94154.98
2019-05-17T15:22:25.070Z,94151.68
2019-05-17T15:24:54.390Z,94152.47
2019-05-17T15:27:23.962Z,94155.77
2019-05-17T15:29:53.300Z,94155.91
2019-05-17T15:32:22.661Z,94150.34
2019-05-17T15:34:52.122Z,94146.73
2019-05-17T15:37:21.459Z,94141.13
2019-05-17T15:39:50.796Z,94138.04
2019-05-17T15:42:20.174Z,94144.95
2019-05-17T15:44:49.526Z,94157.28
2019-05-17T15:47:19.082Z,94154.20
2019-05-17T15:49:48.578Z,94152.27
2019-05-17T15:52:18.044Z,94140.08
2019-05-17T15:54:48.709Z,94146.65
2019-05-17T15:57:18.331Z,94142.01
2019-05-17T15:59:47.750Z,94131.55
2019-05-17T16:02:17.164Z,94130.53
2019-05-17T16:04:46.549Z,94137.48
2019-05-17T16:07:16.019Z,94153.44
2019-05-17T16:09:45.507Z,94157.13
2019-05-17T16:12:14.833Z,94159.73
2019-05-17T16:14:44.195Z,94164.67
2019-05-17T16:17:13.552Z,94168.39
2019-05-17T16:19:43.112Z,94166.78
2019-05-17T16:22:12.487Z,94157.42
2019-05-17T16:24:41.944Z,94162.93
2019-05-17T16:27:12.709Z,94172.39
2019-05-17T16:29:42.366Z,94168.30
2019-05-17T16:32:11.793Z,94170.02
2019-05-17T16:34:41.172Z,94168.40
2019-05-17T16:37:10.576Z,94156.78
2019-05-17T16:39:39.972Z,94159.69
2019-05-17T16:42:09.374Z,94168.34
2019-05-17T16:44:38.768Z,94182.23
2019-05-17T16:47:08.179Z,94191.75
2019-05-17T16:49:37.652Z,94190.34
2019-05-17T16:52:06.955Z,94183.05
2019-05-17T16:54:36.322Z,94180.36
2019-05-17T16:57:05.804Z,94179.12
2019-05-17T16:59:35.246Z,94180.02
2019-05-17T17:02:04.755Z,94177.25
2019-05-17T17:04:34.150Z,94177.28
2019-05-17T17:07:03.618Z,94181.47
2019-05-17T17:09:32.959Z,94181.31
2019-05-17T17:12:02.320Z,94194.89
2019-05-17T17:14:31.803Z,94205.83
2019-05-17T17:17:01.123Z,94209.77
2019-05-17T17:19:30.496Z,94210.72
2019-05-17T17:21:59.809Z,94211.00
2019-05-17T17:24:29.160Z,94211.16
2019-05-17T17:26:58.520Z,94201.45
2019-05-17T17:29:27.972Z,94200.22
2019-05-17T17:31:57.322Z,94196.50
2019-05-17T17:34:26.668Z,94198.83
2019-05-17T17:36:56.067Z,94206.81
2019-05-17T17:39:25.410Z,94206.66
2019-05-17T17:41:54.839Z,94208.52
2019-05-17T17:44:24.181Z,94209.23
2019-05-17T17:46:53.522Z,94204.59
2019-05-17T17:49:22.896Z,94204.64
2019-05-17T17:51:52.237Z,94201.41
2019-05-17T17:54:24.170Z,94205.91
2019-05-17T17:56:54.192Z,94200.77
2019-05-17T17:59:23.574Z,94207.66
2019-05-17T18:01:52.938Z,94207.22
2019-05-17T18:04:22.339Z,94205.22
2019-05-17T18:06:51.709Z,94207.44
2019-05-17T18:09:23.593Z,94210.20
2019-05-17T18:11:53.025Z,94197.06
2019-05-17T18:14:22.423Z,94212.47
2019-05-17T18:16:51.753Z,94210.04
2019-05-17T18:19:21.394Z,94211.67
2019-05-17T18:21:51.437Z,94204.55
2019-05-17T18:24:20.881Z,94225.45
2019-05-17T18:26:50.238Z,94202.16
2019-05-17T18:29:19.611Z,94213.50
2019-05-17T18:31:48.945Z,94217.10
2019-05-17T18:34:18.380Z,94212.10
2019-05-17T18:36:47.748Z,94207.36
2019-05-17T18:39:17.096Z,94206.38
2019-05-17T18:41:46.456Z,94208.16
2019-05-17T18:44:27.089Z,94220.75
2019-05-17T18:46:47.130Z,94222.05
2019-05-17T18:49:16.492Z,94218.94
2019-05-17T18:51:45.905Z,94219.23
2019-05-17T18:54:17.052Z,94220.12
2019-05-17T18:56:46.431Z,94227.07
2019-05-17T18:59:17.197Z,94224.78
2019-05-17T19:01:46.667Z,94213.33
2019-05-17T19:04:16.092Z,94233.33
2019-05-17T19:06:45.750Z,94233.33
2019-05-17T19:09:15.172Z,94234.44
2019-05-17T19:11:44.586Z,94235.11
2019-05-17T19:14:13.996Z,94231.59
2019-05-17T19:16:43.343Z,94244.55
2019-05-17T19:19:12.733Z,94242.25
2019-05-17T19:21:42.204Z,94254.80
2019-05-17T19:24:11.577Z,94254.20
2019-05-17T19:26:41.225Z,94260.43
2019-05-17T19:29:10.699Z,94256.61
2019-05-17T19:31:40.325Z,94263.34
2019-05-17T19:34:09.667Z,94269.36
2019-05-17T19:36:41.541Z,94273.76
2019-05-17T19:39:10.148Z,94270.95
2019-05-17T19:41:40.888Z,94278.81
2019-05-17T19:44:10.235Z,94282.63
2019-05-17T19:46:41.429Z,94278.09
2019-05-17T19:49:10.887Z,94285.03
2019-05-17T19:51:40.725Z,94283.20
2019-05-17T19:54:10.171Z,94281.70
2019-05-17T19:56:41.014Z,94277.70
2019-05-17T19:59:10.414Z,94279.50
2019-05-17T20:01:39.758Z,94280.80
2019-05-17T20:04:09.291Z,94279.81
2019-05-17T20:06:38.668Z,94273.59
2019-05-17T20:09:08.042Z,94268.84
2019-05-17T20:11:37.447Z,94265.34
2019-05-17T20:14:06.869Z,94261.11
2019-05-17T20:16:36.220Z,94252.39
2019-05-17T20:19:05.587Z,94245.76
2019-05-17T20:21:34.956Z,94236.00
2019-05-17T20:24:04.323Z,94232.98
2019-05-17T20:26:33.660Z,94230.20
2019-05-17T20:29:04.055Z,94220.13
2019-05-17T20:31:33.412Z,94232.39
2019-05-17T20:34:02.869Z,94234.56
2019-05-17T20:36:32.250Z,94228.31
2019-05-17T20:39:01.684Z,94224.91
2019-05-17T20:41:31.058Z,94228.87
2019-05-17T20:44:00.458Z,94228.23
2019-05-17T20:46:30.700Z,94227.30
2019-05-17T20:49:00.212Z,94235.33
2019-05-17T20:51:29.641Z,94230.83
2019-05-17T20:53:59.004Z,94224.98
2019-05-17T20:56:32.963Z,94229.86
2019-05-17T20:58:59.442Z,94228.93
2019-05-17T21:01:28.878Z,94227.84
2019-05-17T21:03:58.278Z,94218.41
2019-05-17T21:06:27.630Z,94224.03
2019-05-17T21:08:56.989Z,94226.30
2019-05-17T21:11:26.374Z,94228.78
2019-05-17T21:13:55.770Z,94229.74
2019-05-17T21:16:25.164Z,94239.13
2019-05-17T21:18:54.533Z,94229.80
2019-05-17T21:21:23.898Z,94226.85
2019-05-17T21:23:53.302Z,94232.01
2019-05-17T21:26:22.743Z,94230.94
2019-05-17T21:28:52.167Z,94236.03
2019-05-17T21:31:22.562Z,94229.45
2019-05-17T21:33:51.928Z,94236.20
2019-05-17T21:36:21.286Z,94239.00
2019-05-17T21:38:50.670Z,94236.59
2019-05-17T21:41:20.064Z,94237.90
2019-05-17T21:43:49.421Z,94231.70
2019-05-17T21:46:18.779Z,94237.88
2019-05-17T21:48:48.176Z,94243.14
2019-05-17T21:51:17.582Z,94247.47
2019-05-17T21:53:46.962Z,94244.87
2019-05-17T21:56:16.303Z,94246.64
2019-05-17T21:58:45.636Z,94248.59
2019-05-17T22:01:21.922Z,94253.09
2019-05-17T22:03:51.391Z,94252.43
2019-05-17T22:06:20.783Z,94257.53
2019-05-17T22:08:50.130Z,94248.09
2019-05-17T22:11:19.704Z,94251.38
2019-05-17T22:13:49.028Z,94250.19
2019-05-17T22:16:19.961Z,94249.16
2019-05-17T22:18:49.642Z,94238.29
2019-05-17T22:21:19.007Z,94240.27
2019-05-17T22:23:48.365Z,94239.59
2019-05-17T22:26:17.732Z,94236.97
2019-05-17T22:28:47.117Z,94234.62
2019-05-17T22:31:16.541Z,94232.94
2019-05-17T22:33:45.879Z,94232.83
2019-05-17T22:36:15.215Z,94230.70
2019-05-17T22:38:44.582Z,94225.09
2019-05-17T22:41:13.964Z,94221.08
2019-05-17T22:43:43.305Z,94219.92
2019-05-17T22:46:12.802Z,94220.87
2019-05-17T22:48:42.205Z,94214.55
2019-05-17T22:51:11.685Z,94214.50
2019-05-17T22:53:41.048Z,94216.24
2019-05-17T22:56:10.386Z,94216.73
2019-05-17T22:58:39.739Z,94213.81
2019-05-17T23:01:09.153Z,94205.16
2019-05-17T23:03:38.513Z,94203.61
2019-05-17T23:06:07.959Z,94203.77
2019-05-17T23:08:37.403Z,94199.94
2019-05-17T23:11:06.798Z,94208.19
2019-05-17T23:13:36.112Z,94207.07
2019-05-17T23:16:07.708Z,94215.93
2019-05-17T23:18:37.570Z,94218.39
2019-05-17T23:21:06.948Z,94208.19
2019-05-17T23:23:36.342Z,94212.89
2019-05-17T23:26:05.808Z,94215.80
2019-05-17T23:28:35.126Z,94222.00
2019-05-17T23:31:04.524Z,94222.79
2019-05-17T23:33:33.870Z,94225.70
2019-05-17T23:36:03.338Z,94227.52
2019-05-17T23:38:32.753Z,94234.14
2019-05-17T23:41:02.153Z,94242.27
2019-05-17T23:43:31.517Z,94240.14
2019-05-17T23:46:00.895Z,94239.97
2019-05-17T23:48:30.301Z,94241.90
2019-05-17T23:50:59.668Z,94244.98
2019-05-17T23:53:29.009Z,94243.56
2019-05-17T23:55:58.410Z,94244.36
2019-05-17T23:58:27.827Z,94245.47
